sensor_id;sensor_type;location;lat;lon;timestamp;temperature;humidity
13892;DHT22;7016;48.172;8.058;2023-07-08T00:01:56;20.70;95.80
13892;DHT22;7016;48.172;8.058;2023-07-08T00:04:42;20.60;96.60
13892;DHT22;7016;48.172;8.058;2023-07-08T00:07:28;20.50;96.40
13892;DHT22;7016;48.172;8.058;2023-07-08T00:10:20;20.30;96.40
13892;DHT22;7016;48.172;8.058;2023-07-08T00:13:09;20.30;96.70
13892;DHT22;7016;48.172;8.058;2023-07-08T00:15:55;20.40;96.30
13892;DHT22;7016;48.172;8.058;2023-07-08T00:18:41;20.50;96.30
13892;DHT22;7016;48.172;8.058;2023-07-08T00:21:27;20.30;96.20
13892;DHT22;7016;48.172;8.058;2023-07-08T00:24:14;20.40;96.10
13892;DHT22;7016;48.172;8.058;2023-07-08T00:27:01;20.40;96.50
13892;DHT22;7016;48.172;8.058;2023-07-08T00:29:47;20.40;96.30
13892;DHT22;7016;48.172;8.058;2023-07-08T00:32:33;20.40;95.70
13892;DHT22;7016;48.172;8.058;2023-07-08T00:35:21;20.50;95.90
13892;DHT22;7016;48.172;8.058;2023-07-08T00:38:24;20.50;95.90
13892;DHT22;7016;48.172;8.058;2023-07-08T00:41:38;20.30;94.80
13892;DHT22;7016;48.172;8.058;2023-07-08T00:44:26;20.40;95.70
13892;DHT22;7016;48.172;8.058;2023-07-08T00:47:14;20.30;96.10
13892;DHT22;7016;48.172;8.058;2023-07-08T00:50:03;20.10;96.10
13892;DHT22;7016;48.172;8.058;2023-07-08T00:53:45;20.10;96.40
13892;DHT22;7016;48.172;8.058;2023-07-08T00:56:34;20.20;96.20
13892;DHT22;7016;48.172;8.058;2023-07-08T00:59:29;20.10;96.40
13892;DHT22;7016;48.172;8.058;2023-07-08T01:02:19;20.20;95.70
13892;DHT22;7016;48.172;8.058;2023-07-08T01:05:33;20.20;96.30
13892;DHT22;7016;48.172;8.058;2023-07-08T01:08:20;19.80;97.00
13892;DHT22;7016;48.172;8.058;2023-07-08T01:11:14;19.80;96.20
13892;DHT22;7016;48.172;8.058;2023-07-08T01:14:01;19.80;96.50
13892;DHT22;7016;48.172;8.058;2023-07-08T01:16:50;19.90;96.60
13892;DHT22;7016;48.172;8.058;2023-07-08T01:19:37;20.00;96.70
13892;DHT22;7016;48.172;8.058;2023-07-08T01:22:24;20.00;96.30
13892;DHT22;7016;48.172;8.058;2023-07-08T01:25:11;20.00;97.00
13892;DHT22;7016;48.172;8.058;2023-07-08T01:27:59;19.80;96.90
13892;DHT22;7016;48.172;8.058;2023-07-08T01:30:45;19.70;97.00
13892;DHT22;7016;48.172;8.058;2023-07-08T01:33:34;19.80;97.50
13892;DHT22;7016;48.172;8.058;2023-07-08T01:36:20;19.90;96.70
13892;DHT22;7016;48.172;8.058;2023-07-08T01:39:13;19.90;96.40
13892;DHT22;7016;48.172;8.058;2023-07-08T01:42:00;19.90;96.80
13892;DHT22;7016;48.172;8.058;2023-07-08T01:44:46;19.90;96.60
13892;DHT22;7016;48.172;8.058;2023-07-08T01:47:33;19.90;95.80
13892;DHT22;7016;48.172;8.058;2023-07-08T01:50:20;19.90;96.50
13892;DHT22;7016;48.172;8.058;2023-07-08T01:53:15;19.90;96.70
13892;DHT22;7016;48.172;8.058;2023-07-08T01:56:02;19.70;96.60
13892;DHT22;7016;48.172;8.058;2023-07-08T01:58:48;19.80;96.60
13892;DHT22;7016;48.172;8.058;2023-07-08T02:01:34;19.90;96.50
13892;DHT22;7016;48.172;8.058;2023-07-08T02:04:22;19.90;96.40
13892;DHT22;7016;48.172;8.058;2023-07-08T02:07:09;19.80;96.60
13892;DHT22;7016;48.172;8.058;2023-07-08T02:09:55;19.70;96.70
13892;DHT22;7016;48.172;8.058;2023-07-08T02:12:41;19.80;96.40
13892;DHT22;7016;48.172;8.058;2023-07-08T02:15:28;19.70;97.00
13892;DHT22;7016;48.172;8.058;2023-07-08T02:18:14;19.70;96.60
13892;DHT22;7016;48.172;8.058;2023-07-08T02:21:00;19.70;96.60
13892;DHT22;7016;48.172;8.058;2023-07-08T02:23:49;19.70;97.00
13892;DHT22;7016;48.172;8.058;2023-07-08T02:26:36;19.80;97.30
13892;DHT22;7016;48.172;8.058;2023-07-08T02:29:22;19.80;97.30
13892;DHT22;7016;48.172;8.058;2023-07-08T02:32:09;19.80;96.90
13892;DHT22;7016;48.172;8.058;2023-07-08T02:34:55;19.80;97.00
13892;DHT22;7016;48.172;8.058;2023-07-08T02:37:41;19.80;97.60
13892;DHT22;7016;48.172;8.058;2023-07-08T02:40:28;19.70;97.70
13892;DHT22;7016;48.172;8.058;2023-07-08T02:43:14;19.70;98.00
13892;DHT22;7016;48.172;8.058;2023-07-08T02:46:00;19.70;97.80
13892;DHT22;7016;48.172;8.058;2023-07-08T02:48:46;19.70;97.50
13892;DHT22;7016;48.172;8.058;2023-07-08T02:51:32;19.70;98.00
13892;DHT22;7016;48.172;8.058;2023-07-08T02:54:18;19.70;97.80
13892;DHT22;7016;48.172;8.058;2023-07-08T02:57:04;19.60;97.80
13892;DHT22;7016;48.172;8.058;2023-07-08T02:59:51;19.40;97.50
13892;DHT22;7016;48.172;8.058;2023-07-08T03:02:37;19.40;97.50
13892;DHT22;7016;48.172;8.058;2023-07-08T03:05:23;19.50;98.10
13892;DHT22;7016;48.172;8.058;2023-07-08T03:08:09;19.40;98.30
13892;DHT22;7016;48.172;8.058;2023-07-08T03:11:01;19.50;98.40
13892;DHT22;7016;48.172;8.058;2023-07-08T03:13:47;19.40;98.50
13892;DHT22;7016;48.172;8.058;2023-07-08T03:16:34;19.40;97.40
13892;DHT22;7016;48.172;8.058;2023-07-08T03:19:20;19.50;98.10
13892;DHT22;7016;48.172;8.058;2023-07-08T03:22:06;19.50;98.00
13892;DHT22;7016;48.172;8.058;2023-07-08T03:24:53;19.50;98.60
13892;DHT22;7016;48.172;8.058;2023-07-08T03:27:39;19.40;98.40
13892;DHT22;7016;48.172;8.058;2023-07-08T03:30:26;19.40;98.40
13892;DHT22;7016;48.172;8.058;2023-07-08T03:33:13;19.40;98.60
13892;DHT22;7016;48.172;8.058;2023-07-08T03:35:59;19.50;98.50
13892;DHT22;7016;48.172;8.058;2023-07-08T03:38:45;19.50;98.60
13892;DHT22;7016;48.172;8.058;2023-07-08T03:41:31;19.50;98.90
13892;DHT22;7016;48.172;8.058;2023-07-08T03:44:18;19.40;98.90
13892;DHT22;7016;48.172;8.058;2023-07-08T03:47:04;19.20;99.30
13892;DHT22;7016;48.172;8.058;2023-07-08T03:49:50;19.20;99.20
13892;DHT22;7016;48.172;8.058;2023-07-08T03:52:36;19.20;99.10
13892;DHT22;7016;48.172;8.058;2023-07-08T03:55:23;19.30;99.70
13892;DHT22;7016;48.172;8.058;2023-07-08T03:58:09;19.30;99.90
13892;DHT22;7016;48.172;8.058;2023-07-08T04:00:55;19.40;99.60
13892;DHT22;7016;48.172;8.058;2023-07-08T04:03:41;19.30;99.70
13892;DHT22;7016;48.172;8.058;2023-07-08T04:06:28;19.40;99.40
13892;DHT22;7016;48.172;8.058;2023-07-08T04:09:17;19.60;98.90
13892;DHT22;7016;48.172;8.058;2023-07-08T04:12:03;20.10;98.40
13892;DHT22;7016;48.172;8.058;2023-07-08T04:14:50;20.30;98.50
13892;DHT22;7016;48.172;8.058;2023-07-08T04:17:46;20.50;98.60
13892;DHT22;7016;48.172;8.058;2023-07-08T04:20:33;20.70;98.60
13892;DHT22;7016;48.172;8.058;2023-07-08T04:23:20;20.70;98.90
13892;DHT22;7016;48.172;8.058;2023-07-08T04:26:08;20.80;99.00
13892;DHT22;7016;48.172;8.058;2023-07-08T04:28:54;20.90;99.00
13892;DHT22;7016;48.172;8.058;2023-07-08T04:31:41;20.90;99.70
13892;DHT22;7016;48.172;8.058;2023-07-08T04:34:27;21.00;99.90
13892;DHT22;7016;48.172;8.058;2023-07-08T04:37:14;21.00;99.90
13892;DHT22;7016;48.172;8.058;2023-07-08T04:40:01;21.10;99.90
13892;DHT22;7016;48.172;8.058;2023-07-08T04:42:47;21.00;99.90
13892;DHT22;7016;48.172;8.058;2023-07-08T04:45:33;21.00;99.90
13892;DHT22;7016;48.172;8.058;2023-07-08T04:48:21;21.10;99.90
13892;DHT22;7016;48.172;8.058;2023-07-08T04:51:08;21.10;99.90
13892;DHT22;7016;48.172;8.058;2023-07-08T04:53:54;21.10;99.90
13892;DHT22;7016;48.172;8.058;2023-07-08T04:56:45;21.10;99.90
13892;DHT22;7016;48.172;8.058;2023-07-08T04:59:32;21.10;99.90
13892;DHT22;7016;48.172;8.058;2023-07-08T05:02:20;21.10;99.90
13892;DHT22;7016;48.172;8.058;2023-07-08T05:05:06;21.10;99.90
13892;DHT22;7016;48.172;8.058;2023-07-08T05:07:53;21.20;99.90
13892;DHT22;7016;48.172;8.058;2023-07-08T05:10:39;21.20;99.90
13892;DHT22;7016;48.172;8.058;2023-07-08T05:13:25;21.20;99.90
13892;DHT22;7016;48.172;8.058;2023-07-08T05:16:11;21.20;99.90
13892;DHT22;7016;48.172;8.058;2023-07-08T05:18:57;21.20;99.90
13892;DHT22;7016;48.172;8.058;2023-07-08T05:21:44;21.20;99.90
13892;DHT22;7016;48.172;8.058;2023-07-08T05:24:31;21.20;99.90
13892;DHT22;7016;48.172;8.058;2023-07-08T05:27:17;21.20;99.90
13892;DHT22;7016;48.172;8.058;2023-07-08T05:30:04;21.20;99.90
13892;DHT22;7016;48.172;8.058;2023-07-08T05:32:51;21.20;99.90
13892;DHT22;7016;48.172;8.058;2023-07-08T05:35:37;21.20;99.90
13892;DHT22;7016;48.172;8.058;2023-07-08T05:38:23;21.20;99.90
13892;DHT22;7016;48.172;8.058;2023-07-08T05:41:10;21.20;99.90
13892;DHT22;7016;48.172;8.058;2023-07-08T05:43:56;21.20;99.90
13892;DHT22;7016;48.172;8.058;2023-07-08T05:46:42;21.30;99.80
13892;DHT22;7016;48.172;8.058;2023-07-08T05:49:28;21.20;99.40
13892;DHT22;7016;48.172;8.058;2023-07-08T05:52:14;21.30;99.10
13892;DHT22;7016;48.172;8.058;2023-07-08T05:55:00;21.30;99.30
13892;DHT22;7016;48.172;8.058;2023-07-08T05:57:47;21.30;99.30
13892;DHT22;7016;48.172;8.058;2023-07-08T06:00:33;21.30;98.80
13892;DHT22;7016;48.172;8.058;2023-07-08T06:03:19;21.30;99.10
13892;DHT22;7016;48.172;8.058;2023-07-08T06:06:06;21.30;98.30
13892;DHT22;7016;48.172;8.058;2023-07-08T06:08:52;21.40;98.60
13892;DHT22;7016;48.172;8.058;2023-07-08T06:11:38;21.40;97.90
13892;DHT22;7016;48.172;8.058;2023-07-08T06:14:24;21.40;98.00
13892;DHT22;7016;48.172;8.058;2023-07-08T06:17:11;21.50;98.20
13892;DHT22;7016;48.172;8.058;2023-07-08T06:19:57;21.50;97.30
13892;DHT22;7016;48.172;8.058;2023-07-08T06:22:43;21.60;96.90
13892;DHT22;7016;48.172;8.058;2023-07-08T06:25:29;21.70;97.00
13892;DHT22;7016;48.172;8.058;2023-07-08T06:28:15;21.70;97.90
13892;DHT22;7016;48.172;8.058;2023-07-08T06:31:02;21.80;97.00
13892;DHT22;7016;48.172;8.058;2023-07-08T06:33:48;21.80;96.40
13892;DHT22;7016;48.172;8.058;2023-07-08T06:36:34;21.90;96.70
13892;DHT22;7016;48.172;8.058;2023-07-08T06:39:21;21.90;98.00
13892;DHT22;7016;48.172;8.058;2023-07-08T06:42:07;21.90;98.30
13892;DHT22;7016;48.172;8.058;2023-07-08T06:44:53;21.90;98.90
13892;DHT22;7016;48.172;8.058;2023-07-08T06:47:39;22.00;99.20
13892;DHT22;7016;48.172;8.058;2023-07-08T06:50:26;22.10;99.60
13892;DHT22;7016;48.172;8.058;2023-07-08T06:53:12;22.10;99.90
13892;DHT22;7016;48.172;8.058;2023-07-08T06:55:58;22.10;99.90
13892;DHT22;7016;48.172;8.058;2023-07-08T06:58:45;22.40;99.90
13892;DHT22;7016;48.172;8.058;2023-07-08T07:01:31;22.10;99.90
13892;DHT22;7016;48.172;8.058;2023-07-08T07:04:17;22.10;99.90
13892;DHT22;7016;48.172;8.058;2023-07-08T07:07:04;22.20;99.90
13892;DHT22;7016;48.172;8.058;2023-07-08T07:09:50;22.30;99.90
13892;DHT22;7016;48.172;8.058;2023-07-08T07:12:36;22.30;99.90
13892;DHT22;7016;48.172;8.058;2023-07-08T07:15:22;22.40;99.90
13892;DHT22;7016;48.172;8.058;2023-07-08T07:18:10;22.30;99.70
13892;DHT22;7016;48.172;8.058;2023-07-08T07:20:58;22.40;99.90
13892;DHT22;7016;48.172;8.058;2023-07-08T07:23:44;22.50;99.90
13892;DHT22;7016;48.172;8.058;2023-07-08T07:26:30;22.70;99.90
13892;DHT22;7016;48.172;8.058;2023-07-08T07:29:18;22.90;99.90
13892;DHT22;7016;48.172;8.058;2023-07-08T07:32:04;23.20;99.90
13892;DHT22;7016;48.172;8.058;2023-07-08T07:34:51;23.20;99.80
13892;DHT22;7016;48.172;8.058;2023-07-08T07:37:37;23.20;99.10
13892;DHT22;7016;48.172;8.058;2023-07-08T07:40:24;23.30;99.90
13892;DHT22;7016;48.172;8.058;2023-07-08T07:43:10;23.30;99.90
13892;DHT22;7016;48.172;8.058;2023-07-08T07:45:56;23.50;99.90
13892;DHT22;7016;48.172;8.058;2023-07-08T07:48:42;23.60;99.90
13892;DHT22;7016;48.172;8.058;2023-07-08T07:51:29;23.70;97.50
13892;DHT22;7016;48.172;8.058;2023-07-08T07:54:15;23.60;97.70
13892;DHT22;7016;48.172;8.058;2023-07-08T07:57:02;23.60;99.70
13892;DHT22;7016;48.172;8.058;2023-07-08T07:59:48;23.70;99.20
13892;DHT22;7016;48.172;8.058;2023-07-08T08:02:35;22.40;97.80
13892;DHT22;7016;48.172;8.058;2023-07-08T08:05:21;24.00;99.20
13892;DHT22;7016;48.172;8.058;2023-07-08T08:08:07;24.10;98.00
13892;DHT22;7016;48.172;8.058;2023-07-08T08:10:53;24.30;95.20
13892;DHT22;7016;48.172;8.058;2023-07-08T08:13:40;24.30;94.60
13892;DHT22;7016;48.172;8.058;2023-07-08T08:16:26;24.50;94.10
13892;DHT22;7016;48.172;8.058;2023-07-08T08:19:12;24.50;95.90
13892;DHT22;7016;48.172;8.058;2023-07-08T08:21:58;24.50;94.40
13892;DHT22;7016;48.172;8.058;2023-07-08T08:24:44;24.50;94.10
13892;DHT22;7016;48.172;8.058;2023-07-08T08:27:30;24.60;94.10
13892;DHT22;7016;48.172;8.058;2023-07-08T08:30:16;24.90;94.20
13892;DHT22;7016;48.172;8.058;2023-07-08T08:33:03;24.90;94.60
13892;DHT22;7016;48.172;8.058;2023-07-08T08:35:49;25.00;94.30
13892;DHT22;7016;48.172;8.058;2023-07-08T08:38:35;25.10;94.80
13892;DHT22;7016;48.172;8.058;2023-07-08T08:41:31;25.30;95.40
13892;DHT22;7016;48.172;8.058;2023-07-08T08:44:22;25.40;94.80
13892;DHT22;7016;48.172;8.058;2023-07-08T08:47:35;25.60;93.60
13892;DHT22;7016;48.172;8.058;2023-07-08T08:50:52;25.70;93.10
13892;DHT22;7016;48.172;8.058;2023-07-08T08:53:38;25.70;93.80
13892;DHT22;7016;48.172;8.058;2023-07-08T08:56:39;25.90;94.00
13892;DHT22;7016;48.172;8.058;2023-07-08T08:59:44;25.70;95.10
13892;DHT22;7016;48.172;8.058;2023-07-08T09:05:35;25.40;95.90
13892;DHT22;7016;48.172;8.058;2023-07-08T09:08:31;25.30;96.60
13892;DHT22;7016;48.172;8.058;2023-07-08T09:14:23;25.60;97.00
13892;DHT22;7016;48.172;8.058;2023-07-08T09:20:23;25.90;95.00
13892;DHT22;7016;48.172;8.058;2023-07-08T09:23:29;25.90;95.60
13892;DHT22;7016;48.172;8.058;2023-07-08T09:26:22;26.00;95.60
13892;DHT22;7016;48.172;8.058;2023-07-08T09:29:10;26.10;95.50
13892;DHT22;7016;48.172;8.058;2023-07-08T09:31:58;26.20;94.20
13892;DHT22;7016;48.172;8.058;2023-07-08T09:34:56;26.30;93.90
13892;DHT22;7016;48.172;8.058;2023-07-08T09:37:48;26.40;93.50
13892;DHT22;7016;48.172;8.058;2023-07-08T09:40:35;26.60;93.00
13892;DHT22;7016;48.172;8.058;2023-07-08T09:43:25;26.60;92.70
13892;DHT22;7016;48.172;8.058;2023-07-08T09:46:12;26.60;93.10
13892;DHT22;7016;48.172;8.058;2023-07-08T09:48:59;26.70;91.50
13892;DHT22;7016;48.172;8.058;2023-07-08T09:51:46;26.70;90.70
13892;DHT22;7016;48.172;8.058;2023-07-08T09:54:32;26.70;91.80
13892;DHT22;7016;48.172;8.058;2023-07-08T09:57:30;27.00;90.30
13892;DHT22;7016;48.172;8.058;2023-07-08T10:00:25;26.90;88.50
13892;DHT22;7016;48.172;8.058;2023-07-08T10:03:23;26.90;89.00
13892;DHT22;7016;48.172;8.058;2023-07-08T10:06:20;27.00;89.40
13892;DHT22;7016;48.172;8.058;2023-07-08T10:09:12;27.00;90.40
13892;DHT22;7016;48.172;8.058;2023-07-08T10:12:05;27.20;89.00
13892;DHT22;7016;48.172;8.058;2023-07-08T10:15:01;27.30;88.30
13892;DHT22;7016;48.172;8.058;2023-07-08T10:17:50;27.30;86.60
13892;DHT22;7016;48.172;8.058;2023-07-08T10:20:57;27.40;86.80
13892;DHT22;7016;48.172;8.058;2023-07-08T10:38:48;27.70;85.00
13892;DHT22;7016;48.172;8.058;2023-07-08T10:41:50;27.80;84.90
13892;DHT22;7016;48.172;8.058;2023-07-08T11:00:11;28.10;84.00
13892;DHT22;7016;48.172;8.058;2023-07-08T11:06:10;28.20;84.70
13892;DHT22;7016;48.172;8.058;2023-07-08T11:09:02;28.30;84.60
13892;DHT22;7016;48.172;8.058;2023-07-08T11:12:23;28.50;85.00
13892;DHT22;7016;48.172;8.058;2023-07-08T11:15:24;28.50;84.60
13892;DHT22;7016;48.172;8.058;2023-07-08T11:18:23;28.60;83.60
13892;DHT22;7016;48.172;8.058;2023-07-08T11:24:12;28.70;84.20
13892;DHT22;7016;48.172;8.058;2023-07-08T11:27:48;28.70;83.90
13892;DHT22;7016;48.172;8.058;2023-07-08T11:30:17;28.50;82.30
13892;DHT22;7016;48.172;8.058;2023-07-08T11:33:10;28.40;82.80
13892;DHT22;7016;48.172;8.058;2023-07-08T11:35:57;28.40;83.10
13892;DHT22;7016;48.172;8.058;2023-07-08T11:38:53;28.40;83.80
13892;DHT22;7016;48.172;8.058;2023-07-08T11:41:40;28.50;82.80
13892;DHT22;7016;48.172;8.058;2023-07-08T11:44:26;28.40;84.50
13892;DHT22;7016;48.172;8.058;2023-07-08T11:47:19;28.60;83.60
13892;DHT22;7016;48.172;8.058;2023-07-08T11:50:37;28.50;81.60
13892;DHT22;7016;48.172;8.058;2023-07-08T11:53:31;28.50;82.70
13892;DHT22;7016;48.172;8.058;2023-07-08T11:56:22;28.40;82.60
13892;DHT22;7016;48.172;8.058;2023-07-08T11:59:17;28.50;84.00
13892;DHT22;7016;48.172;8.058;2023-07-08T12:02:09;28.70;83.30
13892;DHT22;7016;48.172;8.058;2023-07-08T12:05:01;28.70;84.80
13892;DHT22;7016;48.172;8.058;2023-07-08T12:07:55;28.80;84.70
13892;DHT22;7016;48.172;8.058;2023-07-08T12:10:50;28.80;85.10
13892;DHT22;7016;48.172;8.058;2023-07-08T12:13:36;28.80;88.10
13892;DHT22;7016;48.172;8.058;2023-07-08T12:16:23;28.90;86.10
13892;DHT22;7016;48.172;8.058;2023-07-08T12:19:13;28.90;83.50
13892;DHT22;7016;48.172;8.058;2023-07-08T12:22:02;28.90;84.70
13892;DHT22;7016;48.172;8.058;2023-07-08T12:24:50;29.00;84.40
13892;DHT22;7016;48.172;8.058;2023-07-08T12:27:36;29.10;85.70
13892;DHT22;7016;48.172;8.058;2023-07-08T12:30:22;29.10;84.10
13892;DHT22;7016;48.172;8.058;2023-07-08T12:33:32;29.10;84.10
13892;DHT22;7016;48.172;8.058;2023-07-08T12:36:21;29.10;82.70
13892;DHT22;7016;48.172;8.058;2023-07-08T12:39:16;29.20;83.40
13892;DHT22;7016;48.172;8.058;2023-07-08T12:42:09;29.10;82.60
13892;DHT22;7016;48.172;8.058;2023-07-08T12:44:56;29.10;84.60
13892;DHT22;7016;48.172;8.058;2023-07-08T12:47:43;29.20;83.10
13892;DHT22;7016;48.172;8.058;2023-07-08T12:50:30;29.00;83.30
13892;DHT22;7016;48.172;8.058;2023-07-08T12:53:16;29.00;84.00
13892;DHT22;7016;48.172;8.058;2023-07-08T12:56:03;29.10;83.70
13892;DHT22;7016;48.172;8.058;2023-07-08T12:58:54;29.20;82.70
13892;DHT22;7016;48.172;8.058;2023-07-08T13:01:42;29.20;85.10
13892;DHT22;7016;48.172;8.058;2023-07-08T13:04:28;29.30;82.70
13892;DHT22;7016;48.172;8.058;2023-07-08T13:07:39;29.30;84.50
13892;DHT22;7016;48.172;8.058;2023-07-08T13:10:29;29.40;83.30
13892;DHT22;7016;48.172;8.058;2023-07-08T13:13:22;29.40;83.20
13892;DHT22;7016;48.172;8.058;2023-07-08T13:16:09;29.50;80.20
13892;DHT22;7016;48.172;8.058;2023-07-08T13:18:56;29.50;80.30
13892;DHT22;7016;48.172;8.058;2023-07-08T13:21:43;29.50;79.00
13892;DHT22;7016;48.172;8.058;2023-07-08T13:24:31;29.60;78.40
13892;DHT22;7016;48.172;8.058;2023-07-08T13:27:23;29.50;78.00
13892;DHT22;7016;48.172;8.058;2023-07-08T13:30:19;29.50;79.00
13892;DHT22;7016;48.172;8.058;2023-07-08T13:33:16;29.60;79.00
13892;DHT22;7016;48.172;8.058;2023-07-08T13:36:04;29.70;77.90
13892;DHT22;7016;48.172;8.058;2023-07-08T13:38:51;29.70;78.20
13892;DHT22;7016;48.172;8.058;2023-07-08T13:41:45;29.80;76.10
13892;DHT22;7016;48.172;8.058;2023-07-08T13:44:31;29.80;78.20
13892;DHT22;7016;48.172;8.058;2023-07-08T13:47:27;29.80;76.30
13892;DHT22;7016;48.172;8.058;2023-07-08T13:50:22;29.90;76.90
13892;DHT22;7016;48.172;8.058;2023-07-08T13:53:17;29.90;76.80
13892;DHT22;7016;48.172;8.058;2023-07-08T13:56:18;30.00;76.60
13892;DHT22;7016;48.172;8.058;2023-07-08T13:59:07;29.90;76.10
13892;DHT22;7016;48.172;8.058;2023-07-08T14:01:56;30.00;75.70
13892;DHT22;7016;48.172;8.058;2023-07-08T14:04:43;29.90;76.20
13892;DHT22;7016;48.172;8.058;2023-07-08T14:07:33;30.00;75.40
13892;DHT22;7016;48.172;8.058;2023-07-08T14:10:19;30.00;73.90
13892;DHT22;7016;48.172;8.058;2023-07-08T14:13:05;30.10;75.80
13892;DHT22;7016;48.172;8.058;2023-07-08T14:15:51;30.00;75.70
13892;DHT22;7016;48.172;8.058;2023-07-08T14:18:38;30.20;75.00
13892;DHT22;7016;48.172;8.058;2023-07-08T14:21:24;30.20;75.80
13892;DHT22;7016;48.172;8.058;2023-07-08T14:24:14;30.10;73.60
13892;DHT22;7016;48.172;8.058;2023-07-08T14:27:00;29.90;74.30
13892;DHT22;7016;48.172;8.058;2023-07-08T14:29:50;29.90;76.40
13892;DHT22;7016;48.172;8.058;2023-07-08T14:32:36;30.10;73.40
13892;DHT22;7016;48.172;8.058;2023-07-08T14:35:24;30.10;75.80
13892;DHT22;7016;48.172;8.058;2023-07-08T14:38:12;30.10;73.70
13892;DHT22;7016;48.172;8.058;2023-07-08T14:40:58;30.10;76.50
13892;DHT22;7016;48.172;8.058;2023-07-08T14:43:44;30.10;76.60
13892;DHT22;7016;48.172;8.058;2023-07-08T14:46:31;30.20;74.10
13892;DHT22;7016;48.172;8.058;2023-07-08T14:49:19;30.20;73.80
13892;DHT22;7016;48.172;8.058;2023-07-08T14:52:07;30.20;73.00
13892;DHT22;7016;48.172;8.058;2023-07-08T14:54:53;30.10;74.00
13892;DHT22;7016;48.172;8.058;2023-07-08T14:57:47;30.20;74.20
13892;DHT22;7016;48.172;8.058;2023-07-08T15:00:35;30.20;72.50
13892;DHT22;7016;48.172;8.058;2023-07-08T15:03:21;30.20;72.30
13892;DHT22;7016;48.172;8.058;2023-07-08T15:06:10;30.10;72.70
13892;DHT22;7016;48.172;8.058;2023-07-08T15:08:57;30.10;73.60
13892;DHT22;7016;48.172;8.058;2023-07-08T15:11:44;30.20;73.90
13892;DHT22;7016;48.172;8.058;2023-07-08T15:14:31;30.20;72.90
13892;DHT22;7016;48.172;8.058;2023-07-08T15:17:18;30.20;73.10
13892;DHT22;7016;48.172;8.058;2023-07-08T15:20:12;30.20;71.90
13892;DHT22;7016;48.172;8.058;2023-07-08T15:22:59;30.20;72.90
13892;DHT22;7016;48.172;8.058;2023-07-08T15:25:46;30.30;72.90
13892;DHT22;7016;48.172;8.058;2023-07-08T15:28:46;30.30;72.20
13892;DHT22;7016;48.172;8.058;2023-07-08T15:31:34;30.40;72.20
13892;DHT22;7016;48.172;8.058;2023-07-08T15:34:22;30.30;72.00
13892;DHT22;7016;48.172;8.058;2023-07-08T15:37:08;30.40;72.20
13892;DHT22;7016;48.172;8.058;2023-07-08T15:39:54;30.30;71.80
13892;DHT22;7016;48.172;8.058;2023-07-08T15:42:41;30.20;71.20
13892;DHT22;7016;48.172;8.058;2023-07-08T15:45:30;30.30;73.50
13892;DHT22;7016;48.172;8.058;2023-07-08T15:48:18;30.20;71.30
13892;DHT22;7016;48.172;8.058;2023-07-08T15:51:04;30.20;71.10
13892;DHT22;7016;48.172;8.058;2023-07-08T15:53:51;30.20;72.90
13892;DHT22;7016;48.172;8.058;2023-07-08T15:56:37;30.20;72.70
13892;DHT22;7016;48.172;8.058;2023-07-08T15:59:27;30.20;72.70
13892;DHT22;7016;48.172;8.058;2023-07-08T16:02:34;30.20;72.00
13892;DHT22;7016;48.172;8.058;2023-07-08T16:05:22;30.10;71.60
13892;DHT22;7016;48.172;8.058;2023-07-08T16:08:09;30.20;72.50
13892;DHT22;7016;48.172;8.058;2023-07-08T16:11:02;30.20;70.30
13892;DHT22;7016;48.172;8.058;2023-07-08T16:13:49;30.20;70.70
13892;DHT22;7016;48.172;8.058;2023-07-08T16:16:35;30.20;71.30
13892;DHT22;7016;48.172;8.058;2023-07-08T16:19:21;30.20;71.90
13892;DHT22;7016;48.172;8.058;2023-07-08T16:22:08;30.10;70.40
13892;DHT22;7016;48.172;8.058;2023-07-08T16:24:54;30.10;69.80
13892;DHT22;7016;48.172;8.058;2023-07-08T16:27:42;30.20;70.10
13892;DHT22;7016;48.172;8.058;2023-07-08T16:30:29;30.20;70.50
13892;DHT22;7016;48.172;8.058;2023-07-08T16:33:15;30.20;71.00
13892;DHT22;7016;48.172;8.058;2023-07-08T16:36:02;30.00;70.00
13892;DHT22;7016;48.172;8.058;2023-07-08T16:38:49;30.00;71.00
13892;DHT22;7016;48.172;8.058;2023-07-08T16:41:36;30.10;70.30
13892;DHT22;7016;48.172;8.058;2023-07-08T16:44:22;30.10;70.50
13892;DHT22;7016;48.172;8.058;2023-07-08T16:47:09;30.00;69.30
13892;DHT22;7016;48.172;8.058;2023-07-08T16:49:55;30.00;69.30
13892;DHT22;7016;48.172;8.058;2023-07-08T16:52:42;30.00;71.20
13892;DHT22;7016;48.172;8.058;2023-07-08T16:55:28;30.00;71.60
13892;DHT22;7016;48.172;8.058;2023-07-08T16:58:15;30.00;72.30
13892;DHT22;7016;48.172;8.058;2023-07-08T17:01:01;30.00;69.60
13892;DHT22;7016;48.172;8.058;2023-07-08T17:03:49;29.90;70.10
13892;DHT22;7016;48.172;8.058;2023-07-08T17:06:36;29.90;71.10
13892;DHT22;7016;48.172;8.058;2023-07-08T17:09:22;29.80;71.20
13892;DHT22;7016;48.172;8.058;2023-07-08T17:12:09;29.80;70.10
13892;DHT22;7016;48.172;8.058;2023-07-08T17:14:56;29.80;71.60
13892;DHT22;7016;48.172;8.058;2023-07-08T17:17:50;29.80;74.50
13892;DHT22;7016;48.172;8.058;2023-07-08T17:20:38;29.80;70.90
13892;DHT22;7016;48.172;8.058;2023-07-08T17:23:25;29.70;71.00
13892;DHT22;7016;48.172;8.058;2023-07-08T17:26:11;29.80;71.60
13892;DHT22;7016;48.172;8.058;2023-07-08T17:28:58;29.70;70.10
13892;DHT22;7016;48.172;8.058;2023-07-08T17:31:44;29.60;72.90
13892;DHT22;7016;48.172;8.058;2023-07-08T17:34:31;29.60;73.30
13892;DHT22;7016;48.172;8.058;2023-07-08T17:37:18;29.60;72.20
13892;DHT22;7016;48.172;8.058;2023-07-08T17:43:04;29.40;69.60
13892;DHT22;7016;48.172;8.058;2023-07-08T17:45:50;29.40;70.30
13892;DHT22;7016;48.172;8.058;2023-07-08T17:48:37;29.40;75.40
13892;DHT22;7016;48.172;8.058;2023-07-08T17:51:27;29.40;74.90
13892;DHT22;7016;48.172;8.058;2023-07-08T17:54:16;29.30;77.70
13892;DHT22;7016;48.172;8.058;2023-07-08T17:57:02;29.30;79.70
13892;DHT22;7016;48.172;8.058;2023-07-08T17:59:49;29.30;75.90
13892;DHT22;7016;48.172;8.058;2023-07-08T18:02:35;29.10;69.90
13892;DHT22;7016;48.172;8.058;2023-07-08T18:05:26;29.00;72.50
13892;DHT22;7016;48.172;8.058;2023-07-08T18:08:12;29.10;75.30
13892;DHT22;7016;48.172;8.058;2023-07-08T18:10:58;29.10;77.60
13892;DHT22;7016;48.172;8.058;2023-07-08T18:13:45;29.00;78.50
13892;DHT22;7016;48.172;8.058;2023-07-08T18:16:32;28.90;81.50
13892;DHT22;7016;48.172;8.058;2023-07-08T18:19:18;28.80;81.90
13892;DHT22;7016;48.172;8.058;2023-07-08T18:22:05;28.70;81.10
13892;DHT22;7016;48.172;8.058;2023-07-08T18:24:51;28.70;83.80
13892;DHT22;7016;48.172;8.058;2023-07-08T18:27:37;28.60;84.40
13892;DHT22;7016;48.172;8.058;2023-07-08T18:30:27;28.40;82.60
13892;DHT22;7016;48.172;8.058;2023-07-08T18:33:15;28.40;84.80
13892;DHT22;7016;48.172;8.058;2023-07-08T18:36:02;28.20;86.40
13892;DHT22;7016;48.172;8.058;2023-07-08T18:38:51;28.20;87.50
13892;DHT22;7016;48.172;8.058;2023-07-08T18:41:45;28.00;89.50
13892;DHT22;7016;48.172;8.058;2023-07-08T18:44:32;27.90;90.50
13892;DHT22;7016;48.172;8.058;2023-07-08T18:47:21;27.80;90.20
13892;DHT22;7016;48.172;8.058;2023-07-08T18:50:08;27.60;91.40
13892;DHT22;7016;48.172;8.058;2023-07-08T18:52:55;27.50;91.70